Time;durP1;ratioP1;P1;durP2;ratioP2;P2;SDS_P1;SDS_P2;PMS_P1;PMS_P2;Temp;Humidity;BMP_temperature;BMP_pressure;BME280_temperature;BME280_humidity;BME280_pressure;Samples;Min_cycle;Max_cycle;Signal;HPM_P1;HPM_P2
2024/02/07 00:00:09;;;;;;;17.63;7.32;;;;;;;10.44;63.09;97246.88;4983315;28;20030;-81
2024/02/07 00:02:34;;;;;;;18.02;9.02;;;;;;;10.33;65.84;97268.13;4992836;28;20113;-81
2024/02/07 00:05:00;;;;;;;18.50;8.40;;;;;;;10.15;65.47;97248.75;5001349;28;20057;-81
2024/02/07 00:07:26;;;;;;;33.97;16.25;;;;;;;10.06;66.67;97260.00;5009396;28;20025;-81
2024/02/07 00:09:51;;;;;;;27.92;13.77;;;;;;;10.03;67.26;97251.38;4993452;28;20100;-80
2024/02/07 00:12:17;;;;;;;18.38;9.35;;;;;;;9.93;69.02;97258.25;4984618;28;20026;-80
2024/02/07 00:14:43;;;;;;;25.70;10.65;;;;;;;9.76;70.86;97262.84;5001132;28;20042;-80
2024/02/07 00:17:09;;;;;;;14.73;7.15;;;;;;;9.71;70.62;97256.09;4988438;28;20162;-80
2024/02/07 00:19:35;;;;;;;12.48;5.35;;;;;;;9.92;70.17;97257.38;4993294;28;20038;-81
2024/02/07 00:22:00;;;;;;;12.13;6.15;;;;;;;10.07;70.11;97259.06;4981125;28;20479;-81
2024/02/07 00:24:26;;;;;;;20.85;6.68;;;;;;;10.06;70.02;97251.16;4989695;28;20121;-81
2024/02/07 00:26:52;;;;;;;16.23;7.80;;;;;;;10.07;71.23;97253.72;4997488;28;20061;-82
2024/02/07 00:29:17;;;;;;;12.32;6.60;;;;;;;9.88;72.13;97258.53;5012320;28;20037;-80
2024/02/07 00:31:43;;;;;;;15.68;8.07;;;;;;;9.66;75.15;97260.84;4984250;28;20395;-80
2024/02/07 00:34:09;;;;;;;14.70;6.70;;;;;;;9.51;76.22;97259.13;5012751;28;20100;-80
2024/02/07 00:36:34;;;;;;;20.80;10.40;;;;;;;9.32;80.90;97266.59;4987565;28;20052;-80
2024/02/07 00:39:00;;;;;;;16.27;7.45;;;;;;;9.15;80.20;97262.25;4977134;28;20034;-80
2024/02/07 00:41:26;;;;;;;19.42;8.68;;;;;;;9.01;82.77;97257.75;4988560;28;20113;-81
2024/02/07 00:47:13;;;;;;;23.63;10.65;;;;;;;8.46;90.48;97264.66;5013897;28;20515;-81
2024/02/07 00:49:39;;;;;;;23.45;10.55;;;;;;;8.38;91.60;97261.56;4982912;28;20034;-80
2024/02/07 00:52:05;;;;;;;24.88;9.95;;;;;;;8.17;94.26;97277.81;4980862;28;20406;-81
2024/02/07 00:54:31;;;;;;;24.73;11.48;;;;;;;7.95;96.69;97260.44;5004776;28;20030;-81
2024/02/07 00:56:56;;;;;;;24.45;10.48;;;;;;;7.96;97.09;97264.84;4996971;28;20026;-81
2024/02/07 00:59:22;;;;;;;21.10;7.97;;;;;;;8.01;95.63;97258.31;4982862;28;20025;-80
2024/02/07 01:01:48;;;;;;;14.52;8.40;;;;;;;8.18;96.04;97271.50;4999811;28;20057;-81
2024/02/07 01:04:13;;;;;;;18.85;8.85;;;;;;;8.17;94.83;97258.31;4994604;28;20486;-80
2024/02/07 01:06:39;;;;;;;19.13;8.07;;;;;;;8.13;97.04;97262.94;4980236;28;20038;-80
2024/02/07 01:09:05;;;;;;;19.52;8.95;;;;;;;8.04;97.33;97258.13;4980324;28;20017;-81
2024/02/07 01:11:31;;;;;;;16.10;8.43;;;;;;;7.99;98.76;97254.03;4995615;28;20040;-81
2024/02/07 01:13:57;;;;;;;14.70;8.10;;;;;;;7.94;98.99;97256.06;4992858;28;20121;-82
2024/02/07 01:16:23;;;;;;;25.35;10.20;;;;;;;7.86;100.00;97252.97;4990532;28;20467;-81
2024/02/07 01:18:51;;;;;;;20.20;10.43;;;;;;;7.72;100.00;97244.91;4987534;28;20029;-81
2024/02/07 01:21:17;;;;;;;19.98;9.15;;;;;;;7.65;100.00;97247.06;4995612;28;20045;-81
2024/02/07 01:23:46;;;;;;;20.90;8.32;;;;;;;7.70;100.00;97252.09;5004393;28;20022;-82
2024/02/07 01:26:15;;;;;;;20.88;9.05;;;;;;;7.72;100.00;97260.88;4992243;28;20022;-82
2024/02/07 01:28:41;;;;;;;28.00;9.23;;;;;;;7.62;100.00;97261.41;4983684;28;20026;-82
2024/02/07 01:31:07;;;;;;;28.33;9.82;;;;;;;7.49;100.00;97275.44;4983292;28;20113;-81
2024/02/07 01:33:35;;;;;;;24.30;11.32;;;;;;;7.43;100.00;97275.78;4984176;28;20504;-80
2024/02/07 01:36:01;;;;;;;22.92;10.10;;;;;;;7.30;100.00;97266.72;4978381;28;20493;-79
2024/02/07 01:38:26;;;;;;;27.58;12.13;;;;;;;7.28;100.00;97279.25;5009544;28;20129;-80
2024/02/07 01:40:57;;;;;;;32.08;13.00;;;;;;;7.30;100.00;97288.00;4975850;28;20463;-80
2024/02/07 01:43:28;;;;;;;27.17;12.20;;;;;;;7.07;100.00;97257.31;4993783;28;20117;-80
2024/02/07 01:45:57;;;;;;;26.48;12.15;;;;;;;7.14;100.00;97287.13;5001795;28;20030;-81
2024/02/07 01:48:23;;;;;;;27.88;12.63;;;;;;;7.08;100.00;97285.59;5001133;28;20405;-80
2024/02/07 01:50:50;;;;;;;23.50;11.35;;;;;;;7.04;100.00;97270.78;4986350;28;20088;-80
2024/02/07 01:53:17;;;;;;;25.05;10.77;;;;;;;7.01;100.00;97269.13;4975541;28;20027;-80
2024/02/07 01:55:44;;;;;;;28.88;11.55;;;;;;;6.87;100.00;97274.31;5007815;28;20017;-79
2024/02/07 01:58:10;;;;;;;28.38;12.65;;;;;;;6.75;100.00;97258.13;4979586;28;20394;-80
2024/02/07 02:00:36;;;;;;;25.13;11.15;;;;;;;6.72;100.00;97261.81;4979604;28;20031;-81
2024/02/07 02:03:01;;;;;;;26.98;12.10;;;;;;;6.72;100.00;97269.78;5003457;28;20073;-81
2024/02/07 02:05:28;;;;;;;22.25;11.20;;;;;;;6.59;100.00;97250.06;4983351;28;20049;-80
2024/02/07 02:07:53;;;;;;;25.35;11.88;;;;;;;6.62;100.00;97268.50;4988340;28;20037;-80
2024/02/07 02:10:20;;;;;;;26.02;12.05;;;;;;;6.57;100.00;97270.56;4995156;28;20041;-80
2024/02/07 02:12:46;;;;;;;27.25;11.90;;;;;;;6.60;100.00;97256.25;5007114;28;20037;-80
2024/02/07 02:15:12;;;;;;;26.05;11.15;;;;;;;6.40;100.00;97239.50;4994615;28;20057;-80
2024/02/07 02:17:37;;;;;;;29.50;13.05;;;;;;;6.47;100.00;97253.34;4984229;28;20144;-81
2024/02/07 02:20:04;;;;;;;26.13;11.68;;;;;;;6.46;100.00;97244.50;4991333;28;20030;-81
2024/02/07 02:22:48;;;;;;;36.05;12.73;;;;;;;6.48;100.00;97260.41;4999318;28;20400;-81
2024/02/07 02:25:43;;;;;;;26.65;12.07;;;;;;;6.55;100.00;97259.16;5002132;28;20030;-80
2024/02/07 02:28:29;;;;;;;27.15;12.45;;;;;;;6.59;100.00;97255.38;4975363;28;20131;-79
2024/02/07 02:30:57;;;;;;;30.55;12.27;;;;;;;6.41;100.00;97251.00;4991327;28;20034;-81
2024/02/07 02:33:25;;;;;;;27.88;12.57;;;;;;;6.32;100.00;97255.00;4994173;28;20033;-80
2024/02/07 02:35:53;;;;;;;27.77;12.43;;;;;;;6.35;100.00;97260.16;4978659;28;20022;-80
2024/02/07 02:38:21;;;;;;;32.20;13.75;;;;;;;6.27;100.00;97250.84;4994975;28;20022;-80
2024/02/07 02:40:48;;;;;;;33.25;13.23;;;;;;;6.26;100.00;97257.09;4985936;28;20022;-80
2024/02/07 02:43:14;;;;;;;27.77;12.38;;;;;;;6.19;100.00;97260.97;4989257;28;20442;-79
2024/02/07 02:45:40;;;;;;;27.63;13.02;;;;;;;6.19;100.00;97276.91;5004749;28;20032;-80
2024/02/07 02:48:06;;;;;;;33.90;15.27;;;;;;;6.04;100.00;97267.03;5003124;28;20029;-80
2024/02/07 02:50:33;;;;;;;32.38;15.38;;;;;;;5.98;100.00;97260.22;5003781;28;20030;-80
2024/02/07 02:52:59;;;;;;;29.85;14.40;;;;;;;5.90;100.00;97255.31;4989925;28;20108;-80
2024/02/07 02:55:25;;;;;;;33.15;15.05;;;;;;;5.91;100.00;97259.66;4994783;28;20030;-79
2024/02/07 02:57:51;;;;;;;30.40;14.82;;;;;;;5.94;100.00;97271.91;4974498;28;20026;-80
2024/02/07 03:00:20;;;;;;;28.25;14.57;;;;;;;5.85;100.00;97262.59;4976698;28;20037;-80
2024/02/07 03:02:46;;;;;;;32.22;16.05;;;;;;;5.86;100.00;97261.69;5007994;28;20141;-81
2024/02/07 03:08:05;;;;;;;26.75;12.27;;;;;;;5.61;100.00;97261.09;5006576;28;20049;-79
2024/02/07 03:10:34;;;;;;;32.13;13.23;;;;;;;5.67;100.00;97251.97;4986806;28;20030;-80
2024/02/07 03:13:00;;;;;;;26.88;12.18;;;;;;;5.48;100.00;97252.84;4990000;28;20113;-80
2024/02/07 03:15:30;;;;;;;34.90;16.88;;;;;;;5.39;100.00;97255.06;4982328;28;20022;-79
2024/02/07 03:17:56;;;;;;;41.58;16.92;;;;;;;5.35;100.00;97250.84;4982229;28;20586;-79
2024/02/07 03:20:22;;;;;;;64.82;24.88;;;;;;;5.28;100.00;97255.56;4982006;28;20022;-80
2024/02/07 03:22:49;;;;;;;53.67;22.00;;;;;;;5.12;100.00;97259.84;4984097;28;20029;-80
2024/02/07 03:25:18;;;;;;;51.63;21.65;;;;;;;5.03;100.00;97264.69;5000445;28;20026;-80
2024/02/07 03:27:52;;;;;;;49.65;19.95;;;;;;;5.07;100.00;97264.50;4982610;28;20117;-80
2024/02/07 03:30:23;;;;;;;49.45;19.27;;;;;;;4.96;100.00;97258.78;4975472;28;20026;-80
2024/02/07 03:32:51;;;;;;;56.85;23.80;;;;;;;4.77;100.00;97268.47;4978871;28;20439;-80
2024/02/07 03:35:17;;;;;;;66.97;26.83;;;;;;;4.79;100.00;97264.84;5001956;28;20028;-79
2024/02/07 03:37:43;;;;;;;41.22;16.98;;;;;;;4.85;100.00;97256.63;4985351;28;20045;-80
2024/02/07 03:40:16;;;;;;;50.17;19.05;;;;;;;5.01;100.00;97274.50;4993467;28;20030;-81
2024/02/07 03:42:41;;;;;;;51.83;21.70;;;;;;;4.75;100.00;97262.38;4984316;28;20092;-79
2024/02/07 03:45:11;;;;;;;49.30;20.35;;;;;;;4.79;100.00;97259.56;4974049;28;20466;-79
2024/02/07 03:47:40;;;;;;;45.05;17.90;;;;;;;4.85;100.00;97261.94;4974506;28;20513;-79
2024/02/07 03:50:16;;;;;;;45.70;19.17;;;;;;;4.94;100.00;97271.25;5009131;28;20033;-79
2024/02/07 03:52:44;;;;;;;48.05;19.60;;;;;;;4.95;100.00;97261.53;5003321;28;20030;-78
2024/02/07 03:55:12;;;;;;;55.90;21.83;;;;;;;4.87;100.00;97248.59;5005918;28;20029;-80
2024/02/07 03:57:43;;;;;;;54.28;21.15;;;;;;;4.84;100.00;97259.34;4989680;28;20042;-80
2024/02/07 04:00:15;;;;;;;53.28;20.13;;;;;;;4.90;100.00;97265.22;4996426;28;20037;-80
2024/02/07 04:02:43;;;;;;;74.32;26.98;;;;;;;4.85;100.00;97264.59;4989452;28;20117;-80
2024/02/07 04:05:10;;;;;;;67.05;25.45;;;;;;;4.72;100.00;97249.28;4989169;28;20064;-80
2024/02/07 04:07:35;;;;;;;74.47;25.83;;;;;;;4.68;100.00;97259.13;4984730;28;20057;-80
2024/02/07 04:10:05;;;;;;;62.20;21.52;;;;;;;4.58;100.00;97262.28;4986677;28;20042;-80
2024/02/07 05:17:29;;;;;;;39.63;15.60;;;;;;;4.20;100.00;97210.94;5008520;28;20053;-78
2024/02/07 05:19:56;;;;;;;37.38;16.17;;;;;;;4.21;100.00;97210.03;5001582;28;20025;-78
2024/02/07 05:22:22;;;;;;;45.83;19.20;;;;;;;4.30;100.00;97214.94;4990517;28;20037;-80
2024/02/07 05:24:49;;;;;;;57.05;21.10;;;;;;;4.36;100.00;97214.66;5015006;28;20031;-79
2024/02/07 05:27:16;;;;;;;66.00;26.67;;;;;;;4.34;100.00;97211.19;4980267;28;20034;-79
2024/02/07 05:29:43;;;;;;;80.53;30.05;;;;;;;4.37;100.00;97226.94;4984744;28;20025;-79
2024/02/07 05:32:08;;;;;;;77.40;29.80;;;;;;;4.30;100.00;97221.09;4997492;28;20021;-78
2024/02/07 05:34:35;;;;;;;81.63;30.40;;;;;;;4.22;100.00;97227.59;4991158;28;20507;-78
2024/02/07 05:37:01;;;;;;;79.00;31.90;;;;;;;4.18;100.00;97229.50;4999922;28;20026;-79
2024/02/07 05:39:28;;;;;;;88.72;30.30;;;;;;;4.25;100.00;97224.81;4981720;28;20108;-79
2024/02/07 05:41:53;;;;;;;58.67;26.13;;;;;;;4.10;100.00;97225.47;4984872;28;20037;-79
2024/02/07 05:44:19;;;;;;;90.50;30.92;;;;;;;4.04;100.00;97225.72;4986716;28;20030;-78
2024/02/07 05:46:44;;;;;;;59.42;25.92;;;;;;;4.03;100.00;97211.63;4985367;28;20108;-78
2024/02/07 05:49:13;;;;;;;63.55;27.38;;;;;;;4.07;100.00;97222.94;4990688;28;20490;-79
2024/02/07 05:51:39;;;;;;;69.85;26.67;;;;;;;4.16;100.00;97226.06;4994969;28;20486;-78
2024/02/07 05:54:07;;;;;;;79.85;28.40;;;;;;;4.22;100.00;97240.84;4986745;28;20049;-78
2024/02/07 05:56:33;;;;;;;74.07;28.50;;;;;;;4.30;100.00;97231.66;5006294;28;20413;-79
2024/02/07 05:58:59;;;;;;;83.75;29.58;;;;;;;4.33;100.00;97220.94;5001632;28;20410;-78
2024/02/07 06:01:26;;;;;;;66.82;29.00;;;;;;;4.31;100.00;97222.78;5002111;28;20041;-78
2024/02/07 06:03:56;;;;;;;74.35;27.85;;;;;;;4.32;100.00;97213.06;4978561;28;20108;-78
2024/02/07 06:06:29;;;;;;;81.05;29.88;;;;;;;4.51;100.00;97229.03;4977939;28;20022;-79
2024/02/07 06:08:57;;;;;;;83.70;31.52;;;;;;;4.49;100.00;97202.59;4978742;28;20449;-79
2024/02/07 06:11:28;;;;;;;83.50;28.08;;;;;;;4.74;100.00;97213.84;5022877;28;20023;-79
2024/02/07 06:13:54;;;;;;;67.82;27.98;;;;;;;4.93;100.00;97221.81;4990935;28;20057;-79
2024/02/07 06:16:20;;;;;;;72.47;27.60;;;;;;;4.93;100.00;97214.75;4985712;28;20079;-79
2024/02/07 06:18:46;;;;;;;67.45;26.90;;;;;;;5.02;100.00;97220.53;4984046;28;20485;-80
2024/02/07 06:21:11;;;;;;;56.05;23.83;;;;;;;5.18;100.00;97235.69;4992067;28;20033;-80
2024/02/07 06:23:37;;;;;;;49.67;20.85;;;;;;;5.27;100.00;97231.75;4979012;28;20036;-79
2024/02/07 06:26:03;;;;;;;59.95;22.85;;;;;;;5.36;100.00;97221.59;5002283;28;20507;-80
2024/02/07 06:28:28;;;;;;;47.92;21.92;;;;;;;5.59;100.00;97214.34;4980834;28;20061;-79
2024/02/07 06:30:54;;;;;;;50.80;21.95;;;;;;;5.66;100.00;97216.63;4991963;28;20087;-80
2024/02/07 06:33:20;;;;;;;55.80;22.73;;;;;;;5.71;100.00;97204.00;4997145;28;20032;-79
2024/02/07 06:35:45;;;;;;;67.18;28.02;;;;;;;5.76;100.00;97191.38;4996999;28;20033;-78
2024/02/07 06:38:11;;;;;;;117.10;46.13;;;;;;;5.98;100.00;97200.03;4985605;28;20409;-79
2024/02/07 06:40:37;;;;;;;88.93;37.83;;;;;;;6.17;100.00;97204.44;4986813;28;20033;-79
2024/02/07 06:43:03;;;;;;;110.10;44.92;;;;;;;6.28;100.00;97196.78;4984279;28;20032;-79
2024/02/07 06:45:29;;;;;;;148.88;56.38;;;;;;;6.68;100.00;97198.25;4993851;28;20037;-79
2024/02/07 06:47:56;;;;;;;121.13;53.30;;;;;;;7.18;100.00;97188.44;4985687;28;20375;-79
2024/02/07 06:50:24;;;;;;;132.73;56.10;;;;;;;7.46;100.00;97185.13;5002077;28;20033;-78
2024/02/07 06:52:50;;;;;;;135.45;56.65;;;;;;;7.87;100.00;97190.81;4993390;28;20417;-79
2024/02/07 06:55:16;;;;;;;147.77;57.08;;;;;;;8.30;100.00;97167.91;4977468;28;20033;-80
2024/02/07 06:57:42;;;;;;;107.55;48.80;;;;;;;8.44;100.00;97170.59;4986710;28;20026;-77
2024/02/07 07:00:08;;;;;;;104.68;45.45;;;;;;;8.63;100.00;97169.41;4989224;28;20464;-79
2024/02/07 07:02:34;;;;;;;110.60;46.13;;;;;;;8.44;100.00;97179.44;5013020;28;20119;-79
2024/02/07 07:04:59;;;;;;;96.25;45.05;;;;;;;8.76;100.00;97172.19;5009097;28;20458;-81
2024/02/07 07:07:25;;;;;;;78.82;38.00;;;;;;;8.97;100.00;97162.88;4985078;28;20514;-81
2024/02/07 07:09:51;;;;;;;68.95;31.67;;;;;;;9.39;98.37;97156.66;4984990;28;20563;-80
2024/02/07 07:12:19;;;;;;;117.13;36.47;;;;;;;9.78;95.44;97154.09;4983741;28;20108;-81
2024/02/07 07:14:45;;;;;;;76.38;36.10;;;;;;;10.33;88.35;97146.00;4980555;28;20037;-80
2024/02/07 07:17:11;;;;;;;70.85;34.60;;;;;;;10.44;86.93;97142.59;4996704;28;20481;-81
2024/02/07 07:19:39;;;;;;;87.78;42.08;;;;;;;10.66;83.94;97134.81;4980279;28;20143;-80
2024/02/07 07:22:05;;;;;;;101.22;43.70;;;;;;;10.78;83.69;97139.31;4981392;28;20405;-81
2024/02/07 07:24:30;;;;;;;76.00;34.40;;;;;;;11.28;78.58;97135.78;4996669;28;20044;-80
2024/02/07 07:26:56;;;;;;;84.63;37.85;;;;;;;11.26;77.55;97126.97;4979396;28;20061;-80
2024/02/07 07:29:31;;;;;;;65.95;23.55;;;;;;;11.07;78.21;97107.00;4982213;28;20065;-80
2024/02/07 07:36:08;;;;;;;58.15;23.25;;;;;;;11.57;69.43;97071.19;4955208;28;20550;-80
2024/02/07 07:38:48;;;;;;;;;;;;;;;12.46;66.15;97121.59;4979747;28;20136;-80
2024/02/07 07:41:14;;;;;;;46.67;22.45;;;;;;;12.34;65.27;97095.72;5003091;28;19917;-80
2024/02/07 07:43:40;;;;;;;44.30;24.83;;;;;;;12.05;66.03;97097.06;4993099;28;20033;-79
2024/02/07 07:46:08;;;;;;;46.35;25.00;;;;;;;11.54;69.57;97112.44;4995741;28;20032;-81
2024/02/07 07:48:33;;;;;;;57.10;24.65;;;;;;;11.18;72.98;97123.13;4993429;28;20042;-81
2024/02/07 07:51:00;;;;;;;47.03;24.33;;;;;;;11.17;74.75;97108.88;4983026;28;20034;-80
2024/02/07 07:53:25;;;;;;;54.40;27.40;;;;;;;10.96;77.26;97110.41;4990557;28;20409;-74
2024/02/07 07:55:51;;;;;;;56.10;27.50;;;;;;;11.21;77.91;97115.75;5008301;28;20026;-75
2024/02/07 07:58:17;;;;;;;63.45;25.30;;;;;;;10.80;85.70;97115.97;4976683;28;20037;-75
2024/02/07 08:00:42;;;;;;;53.88;26.17;;;;;;;10.43;97.66;97140.03;5010012;28;20033;-76
2024/02/07 08:03:08;;;;;;;68.75;26.17;;;;;;;10.38;99.74;97126.97;5001518;28;20068;-80
2024/02/07 08:05:35;;;;;;;65.63;31.45;;;;;;;10.91;95.07;97109.03;4990123;28;20160;-79
2024/02/07 08:08:01;;;;;;;79.20;35.45;;;;;;;11.23;88.26;97119.16;5013020;28;20039;-80
2024/02/07 08:10:27;;;;;;;78.95;37.35;;;;;;;11.70;87.17;97105.03;5010821;28;20515;-79
2024/02/07 08:12:52;;;;;;;59.33;28.77;;;;;;;12.20;86.82;97095.91;5003923;28;20026;-79
2024/02/07 08:15:18;;;;;;;62.15;31.48;;;;;;;12.42;87.67;97112.09;4988007;28;20040;-79
2024/02/07 08:17:44;;;;;;;74.88;29.95;;;;;;;12.86;84.98;97099.72;4976168;28;20141;-79
2024/02/07 08:20:12;;;;;;;55.75;28.15;;;;;;;13.23;77.52;97089.66;4981901;28;20040;-79
2024/02/07 08:22:38;;;;;;;56.47;28.67;;;;;;;13.49;77.92;97091.97;5002746;28;20419;-79
2024/02/07 08:25:05;;;;;;;56.08;29.08;;;;;;;14.18;74.60;97073.69;4976451;28;20401;-79
2024/02/07 08:27:31;;;;;;;57.03;27.58;;;;;;;14.65;68.51;97075.94;5000731;28;20038;-79
2024/02/07 08:29:56;;;;;;;47.15;21.50;;;;;;;15.16;74.95;97072.41;4992596;28;20030;-79
2024/02/07 08:32:22;;;;;;;37.08;16.30;;;;;;;15.87;77.35;97079.47;4993931;28;20095;-79
2024/02/07 08:34:48;;;;;;;22.17;12.18;;;;;;;16.53;71.01;97082.34;4998402;28;20037;-80
2024/02/07 08:37:13;;;;;;;31.35;14.32;;;;;;;16.84;71.90;97080.34;4995507;28;20072;-78
2024/02/07 08:39:39;;;;;;;58.17;29.98;;;;;;;17.32;65.71;97064.84;4998069;28;20040;-77
2024/02/07 08:42:05;;;;;;;14.38;7.63;;;;;;;18.51;58.94;97054.75;5015494;28;20452;-78
2024/02/07 08:44:32;;;;;;;13.68;5.65;;;;;;;19.42;52.02;97045.25;4999206;28;20163;-78
2024/02/07 08:46:58;;;;;;;9.20;4.30;;;;;;;20.16;47.93;97042.63;5015283;28;20025;-78
2024/02/07 08:49:23;;;;;;;14.25;6.40;;;;;;;20.39;46.89;97045.59;5015405;28;20543;-76
2024/02/07 08:51:49;;;;;;;15.23;5.63;;;;;;;20.67;46.45;97027.94;4998916;28;20026;-78
2024/02/07 08:54:14;;;;;;;11.70;5.75;;;;;;;20.46;45.49;97046.59;5015544;28;20604;-77
2024/02/07 08:56:40;;;;;;;10.80;6.10;;;;;;;20.11;46.69;97031.41;5032799;28;20094;-76
2024/02/07 08:59:06;;;;;;;10.00;5.78;;;;;;;19.98;46.08;97040.03;5014963;28;20152;-76
2024/02/07 09:01:31;;;;;;;8.63;4.13;;;;;;;20.16;46.56;97049.91;4991261;28;20474;-78
2024/02/07 09:03:57;;;;;;;7.93;3.85;;;;;;;20.03;49.70;97050.38;5013322;28;20032;-80
2024/02/07 09:06:23;;;;;;;11.77;4.75;;;;;;;21.01;45.39;97042.16;4998911;28;20100;-78
2024/02/07 09:08:48;;;;;;;6.72;3.20;;;;;;;21.24;44.57;97041.47;4998958;28;20481;-76
2024/02/07 09:11:14;;;;;;;11.90;3.53;;;;;;;21.20;44.64;97029.25;5014941;28;20029;-77
2024/02/07 09:13:40;;;;;;;5.55;3.70;;;;;;;21.61;44.00;97034.41;5002347;28;20473;-75
2024/02/07 09:16:06;;;;;;;17.80;4.28;;;;;;;22.46;42.57;97023.56;4995242;28;20085;-76
2024/02/07 09:18:35;;;;;;;14.60;4.18;;;;;;;23.02;41.18;97009.47;5007441;28;20049;-77
2024/02/07 09:21:00;;;;;;;14.23;5.80;;;;;;;22.77;40.83;96997.09;4998985;28;20029;-75
2024/02/07 09:23:26;;;;;;;9.38;3.88;;;;;;;22.91;40.45;96995.44;5012637;28;20064;-76
2024/02/07 09:25:51;;;;;;;6.78;3.00;;;;;;;22.60;40.24;96998.25;5004214;28;20029;-78
2024/02/07 09:28:17;;;;;;;10.90;3.13;;;;;;;21.98;41.39;97005.66;4987870;28;20493;-75
2024/02/07 09:30:43;;;;;;;6.22;3.28;;;;;;;21.81;42.26;97006.75;5030094;28;20033;-76
2024/02/07 09:33:08;;;;;;;5.68;3.05;;;;;;;21.21;43.19;96998.31;5012000;28;20041;-73
2024/02/07 09:35:34;;;;;;;6.10;2.97;;;;;;;21.29;42.91;97001.84;4999060;28;20033;-78
2024/02/07 09:38:00;;;;;;;5.13;3.00;;;;;;;21.05;43.17;96994.56;5014604;28;20100;-77
2024/02/07 09:40:25;;;;;;;8.45;2.70;;;;;;;21.00;43.32;96999.69;5012310;28;20049;-78
2024/02/07 09:42:51;;;;;;;6.53;3.13;;;;;;;20.45;43.95;97001.44;5008840;28;20040;-79
2024/02/07 09:45:18;;;;;;;6.93;2.78;;;;;;;20.52;44.22;97002.44;4989232;28;20033;-79
2024/02/07 09:48:17;;;;;;;7.30;3.00;;;;;;;20.80;43.45;97001.06;5015049;28;20075;-73
2024/02/07 09:50:43;;;;;;;8.35;2.97;;;;;;;20.44;50.21;97021.47;4984481;28;20048;-76
2024/02/07 09:53:10;;;;;;;7.13;3.30;;;;;;;20.40;48.34;97003.78;5001093;28;20533;-79
2024/02/07 09:55:35;;;;;;;11.07;3.70;;;;;;;21.05;44.88;97008.16;4993912;28;20435;-77
2024/02/07 09:58:01;;;;;;;34.13;18.33;;;;;;;20.59;48.61;96998.03;5011524;28;20037;-83
2024/02/07 10:00:27;;;;;;;5.95;2.70;;;;;;;20.45;44.78;96996.00;4993501;28;20033;-83
2024/02/07 10:02:53;;;;;;;4.88;3.33;;;;;;;20.43;44.74;96988.00;4989973;28;20049;-86
2024/02/07 10:05:20;;;;;;;14.95;3.25;;;;;;;20.46;45.38;96970.50;4995695;28;20473;-83
2024/02/07 10:07:50;;;;;;;7.72;3.15;;;;;;;20.86;46.84;96973.19;5000922;28;20485;-82
2024/02/07 10:10:16;;;;;;;6.47;2.45;;;;;;;20.29;45.12;96972.41;4990904;28;20021;-83
2024/02/07 10:12:41;;;;;;;7.10;3.58;;;;;;;20.64;51.84;96990.19;5011347;28;20040;-79
2024/02/07 10:15:09;;;;;;;7.90;3.00;;;;;;;20.38;45.38;96962.38;4995280;28;20260;-82
2024/02/07 10:17:34;;;;;;;7.60;3.05;;;;;;;20.61;48.85;96971.50;5003537;28;20080;-80
2024/02/07 10:20:08;;;;;;;7.03;3.63;;;;;;;20.95;47.29;96961.28;5029754;28;20064;-77
2024/02/07 10:22:38;;;;;;;7.63;3.53;;;;;;;21.00;45.10;96947.16;5020826;28;20041;-74
2024/02/07 10:25:12;;;;;;;5.72;3.60;;;;;;;20.24;49.39;96960.31;5008843;28;20039;-78
2024/02/07 10:27:38;;;;;;;8.07;4.40;;;;;;;20.24;48.66;96944.84;4984573;28;20064;-80
2024/02/07 10:30:04;;;;;;;11.05;3.80;;;;;;;21.08;45.15;96936.25;5011641;28;20068;-80
2024/02/07 10:32:30;;;;;;;10.38;3.58;;;;;;;21.68;44.60;96931.09;4986982;28;20076;-79
2024/02/07 10:34:56;;;;;;;10.93;3.53;;;;;;;22.15;42.50;96904.56;5001002;28;20501;-81
2024/02/07 10:37:22;;;;;;;5.97;2.78;;;;;;;21.61;43.93;96913.78;5007152;28;20405;-84
2024/02/07 10:39:49;;;;;;;20.20;9.02;;;;;;;21.76;45.63;96914.69;4998626;28;20037;-79
2024/02/07 10:42:15;;;;;;;8.07;2.92;;;;;;;21.78;43.75;96901.75;4987128;28;20090;-79
2024/02/07 10:44:41;;;;;;;7.45;4.70;;;;;;;22.82;39.88;96896.47;5004273;28;20034;-79
2024/02/07 10:47:08;;;;;;;5.30;2.67;;;;;;;23.58;38.30;96878.84;5006456;28;20049;-77
2024/02/07 10:49:34;;;;;;;9.05;2.88;;;;;;;22.89;39.40;96880.19;5007206;28;20078;-82
2024/02/07 10:52:01;;;;;;;6.38;2.78;;;;;;;23.09;40.32;96884.91;5007858;28;20045;-80
2024/02/07 10:54:26;;;;;;;5.95;2.72;;;;;;;23.01;38.04;96871.34;5003145;28;20484;-80
2024/02/07 10:56:56;;;;;;;5.35;2.50;;;;;;;23.01;37.71;96865.88;5010859;28;20033;-78
2024/02/07 10:59:22;;;;;;;3.10;2.40;;;;;;;23.37;36.74;96855.03;4986889;28;20407;-80
2024/02/07 11:01:48;;;;;;;6.90;2.42;;;;;;;23.49;36.73;96860.88;5011196;28;20437;-78
2024/02/07 11:04:14;;;;;;;7.65;2.72;;;;;;;24.07;35.03;96847.00;4995608;28;20045;-80
2024/02/07 11:06:40;;;;;;;7.25;2.40;;;;;;;24.20;35.48;96830.75;4985298;28;20045;-81
2024/02/07 11:09:07;;;;;;;10.20;2.53;;;;;;;24.72;34.42;96830.31;5010497;28;20029;-77
2024/02/07 11:11:32;;;;;;;5.28;2.95;;;;;;;25.26;33.68;96810.38;5010868;28;20511;-80
2024/02/07 11:13:58;;;;;;;5.00;2.78;;;;;;;25.57;33.14;96815.38;5027965;28;20029;-81
2024/02/07 11:16:24;;;;;;;9.98;2.33;;;;;;;24.88;33.89;96818.22;4982034;28;20056;-80
2024/02/07 11:18:50;;;;;;;9.25;1.95;;;;;;;24.96;33.12;96809.84;4997791;28;20038;-73
2024/02/07 11:21:29;;;;;;;5.95;2.15;;;;;;;25.40;35.10;96824.97;4993106;28;20039;-79
2024/02/07 11:23:55;;;;;;;4.95;2.70;;;;;;;25.62;33.22;96807.41;4990364;28;20032;-78
2024/02/07 11:26:21;;;;;;;6.93;2.40;;;;;;;26.17;34.88;96809.81;5010496;28;20471;-81
2024/02/07 11:28:47;;;;;;;5.00;2.30;;;;;;;26.72;32.90;96802.19;4986326;28;20040;-79
2024/02/07 11:31:16;;;;;;;6.70;2.50;;;;;;;26.80;34.22;96796.47;5010433;28;20037;-79
2024/02/07 11:33:43;;;;;;;5.40;2.35;;;;;;;27.23;31.48;96783.88;5010468;28;20064;-79
2024/02/07 11:36:17;;;;;;;12.65;2.53;;;;;;;27.18;32.45;96778.19;4999803;28;20026;-80
2024/02/07 11:38:54;;;;;;;3.38;1.92;;;;;;;26.07;33.34;96776.47;4998980;28;20514;-80
2024/02/07 11:41:20;;;;;;;6.15;2.50;;;;;;;24.76;34.14;96781.50;4992509;28;20468;-80
2024/02/07 11:43:46;;;;;;;15.00;2.75;;;;;;;24.95;32.58;96760.78;5010037;28;20033;-76
2024/02/07 11:46:12;;;;;;;4.80;3.00;;;;;;;26.32;34.32;96779.44;5027199;28;20032;-74
2024/02/07 11:48:41;;;;;;;10.77;5.38;;;;;;;26.12;31.23;96760.22;5009551;28;20520;-74
2024/02/07 11:51:11;;;;;;;4.63;2.78;;;;;;;25.01;33.61;96758.06;5003340;28;20493;-74
2024/02/07 11:53:40;;;;;;;5.90;3.80;;;;;;;25.41;33.68;96760.97;4997110;28;20121;-75
2024/02/07 11:56:11;;;;;;;4.47;3.05;;;;;;;25.07;34.92;96757.25;4991294;28;20438;-74
2024/02/07 11:58:37;;;;;;;4.75;3.30;;;;;;;25.10;34.86;96750.53;5010849;28;20116;-77
2024/02/07 12:01:02;;;;;;;4.43;2.55;;;;;;;25.22;34.21;96760.69;5004769;28;20043;-79
2024/02/07 12:03:28;;;;;;;5.90;3.90;;;;;;;25.25;34.06;96756.69;5003529;28;20345;-81
2024/02/07 12:05:54;;;;;;;9.48;3.03;;;;;;;23.39;37.13;96767.47;4992905;28;20022;-82
2024/02/07 12:08:20;;;;;;;8.43;2.60;;;;;;;23.62;37.18;96762.72;5026905;28;20375;-80
2024/02/07 12:10:46;;;;;;;9.45;3.53;;;;;;;24.19;37.96;96779.00;5027507;28;20405;-75
2024/02/07 12:13:11;;;;;;;8.07;3.03;;;;;;;23.58;35.51;96758.69;4980009;28;20034;-75
2024/02/07 12:15:37;;;;;;;6.15;2.80;;;;;;;22.88;36.64;96750.31;5031048;28;20025;-75
2024/02/07 12:18:04;;;;;;;8.15;2.53;;;;;;;23.16;36.63;96743.91;4990749;28;20048;-74
2024/02/07 12:20:30;;;;;;;7.07;3.17;;;;;;;23.97;35.72;96731.72;5029964;28;20505;-75
2024/02/07 12:23:00;;;;;;;10.55;2.70;;;;;;;25.13;33.42;96728.22;5013722;28;20028;-77
2024/02/07 12:25:25;;;;;;;5.25;2.78;;;;;;;25.88;32.91;96706.03;5012231;28;20029;-76
2024/02/07 12:27:51;;;;;;;8.25;3.70;;;;;;;26.39;31.69;96703.47;5013515;28;20071;-77
2024/02/07 12:30:17;;;;;;;6.07;2.80;;;;;;;26.71;32.50;96704.44;4997731;28;20033;-77
2024/02/07 12:32:42;;;;;;;10.60;3.13;;;;;;;26.93;32.52;96701.22;5021413;28;20057;-76
2024/02/07 12:35:09;;;;;;;13.48;3.65;;;;;;;27.12;32.13;96693.94;5013296;28;20051;-77
2024/02/07 12:37:35;;;;;;;4.30;2.63;;;;;;;27.20;31.33;96682.69;5013201;28;20039;-78